Time;durP1;ratioP1;P1;durP2;ratioP2;P2;SDS_P1;SDS_P2;PMS_P1;PMS_P2;Temp;Humidity;BMP_temperature;BMP_pressure;BME280_temperature;BME280_humidity;BME280_pressure;Samples;Min_cycle;Max_cycle;Signal;HPM_P1;HPM_P2
2021/10/24 00:00:51;;;;;;;14.43;7.97;;;;;;;3.37;100.00;102537.09;2106645;28;20034;-63
2021/10/24 00:01:52;;;;;;;11.77;7.70;;;;;;;3.35;100.00;102543.09;2106980;28;20032;-63
2021/10/24 00:02:52;;;;;;;13.30;8.33;;;;;;;3.34;100.00;102533.63;2107097;28;20027;-63
2021/10/24 00:03:52;;;;;;;15.40;8.40;;;;;;;3.30;100.00;102544.75;2106879;28;20286;-63
2021/10/24 00:04:52;;;;;;;11.63;7.97;;;;;;;3.31;100.00;102540.44;2107068;28;20469;-63
2021/10/24 00:05:53;;;;;;;13.93;8.17;;;;;;;3.32;100.00;102543.06;2107053;28;20107;-63
2021/10/24 00:06:53;;;;;;;15.10;7.87;;;;;;;3.29;100.00;102537.84;2107021;28;20138;-63
2021/10/24 00:07:53;;;;;;;17.10;7.63;;;;;;;3.25;100.00;102537.78;2106374;28;20020;-63
2021/10/24 00:08:54;;;;;;;14.77;8.63;;;;;;;3.25;100.00;102530.91;2106348;28;20115;-63
2021/10/24 00:09:54;;;;;;;13.47;7.47;;;;;;;3.29;100.00;102543.00;2106206;28;20032;-62
2021/10/24 00:10:54;;;;;;;12.37;7.57;;;;;;;3.29;100.00;102537.84;2106360;28;20043;-63
2021/10/24 00:11:55;;;;;;;13.80;8.40;;;;;;;3.30;100.00;102528.41;2106348;28;20489;-63
2021/10/24 00:12:55;;;;;;;13.53;8.73;;;;;;;3.25;100.00;102538.63;2106287;28;20024;-63
2021/10/24 00:13:55;;;;;;;17.20;8.97;;;;;;;3.24;100.00;102536.91;2106403;28;20106;-64
2021/10/24 00:14:56;;;;;;;21.20;8.17;;;;;;;3.27;100.00;102529.22;2106953;28;20032;-63
2021/10/24 00:15:56;;;;;;;19.57;8.90;;;;;;;3.25;100.00;102536.06;2106939;28;20032;-63
2021/10/24 00:16:57;;;;;;;14.85;7.50;;;;;;;3.24;100.00;102530.91;2106959;28;20068;-64
2021/10/24 00:17:57;;;;;;;14.63;8.47;;;;;;;3.21;100.00;102534.28;2106943;28;20035;-62
2021/10/24 00:18:57;;;;;;;15.83;8.57;;;;;;;3.19;100.00;102533.41;2106958;28;20442;-62
2021/10/24 00:19:57;;;;;;;14.23;8.53;;;;;;;3.19;100.00;102525.66;2106973;28;20036;-63
2021/10/24 00:20:59;;;;;;;13.33;8.47;;;;;;;3.18;100.00;102529.94;2106936;28;20020;-63
2021/10/24 00:21:59;;;;;;;;;;;;;;;3.15;100.00;102526.47;2107416;28;20469;-63
2021/10/24 00:23:00;;;;;;;13.77;8.50;;;;;;;3.13;100.00;102526.44;2106929;28;19908;-63
2021/10/24 00:24:00;;;;;;;14.55;8.55;;;;;;;3.12;100.00;102524.69;2106819;28;20434;-62
2021/10/24 00:25:01;;;;;;;11.40;7.67;;;;;;;3.16;100.00;102525.59;2106955;28;20024;-63
2021/10/24 00:26:01;;;;;;;14.30;9.17;;;;;;;3.13;100.00;102525.53;2106907;28;20024;-62
2021/10/24 00:27:02;;;;;;;19.87;8.10;;;;;;;3.08;100.00;102528.94;2106310;28;20031;-63
2021/10/24 00:28:02;;;;;;;16.13;8.77;;;;;;;3.06;100.00;102527.16;2106280;28;20561;-62
2021/10/24 00:29:03;;;;;;;15.33;8.60;;;;;;;3.04;100.00;102532.31;2106253;28;20389;-63
2021/10/24 00:30:05;;;;;;;15.70;8.73;;;;;;;3.04;100.00;102529.72;2106335;28;20491;-62
2021/10/24 00:31:06;;;;;;;20.17;8.50;;;;;;;3.03;100.00;102528.00;2106809;28;20115;-63
2021/10/24 00:32:06;;;;;;;17.02;8.48;;;;;;;3.05;100.00;102523.72;2106912;28;20028;-63
2021/10/24 00:33:07;;;;;;;13.73;8.67;;;;;;;3.08;100.00;102523.75;2106213;28;20028;-63
2021/10/24 00:34:07;;;;;;;13.27;8.20;;;;;;;3.08;100.00;102534.09;2106233;28;20153;-62
2021/10/24 00:35:08;;;;;;;13.40;8.60;;;;;;;3.06;100.00;102529.75;2106811;28;20465;-63
2021/10/24 00:36:08;;;;;;;15.97;9.00;;;;;;;3.01;100.00;102532.25;2106054;28;20104;-63
2021/10/24 00:37:08;;;;;;;20.50;8.83;;;;;;;3.00;100.00;102525.34;2106274;28;20020;-63
2021/10/24 00:38:09;;;;;;;11.65;7.68;;;;;;;2.98;100.00;102527.06;2106122;28;20053;-62
2021/10/24 00:39:09;;;;;;;12.95;8.18;;;;;;;2.96;100.00;102532.19;2097801;28;20483;-63
2021/10/24 00:40:10;;;;;;;13.93;8.70;;;;;;;2.96;100.00;102529.59;2106215;28;20111;-63
2021/10/24 00:41:11;;;;;;;16.02;7.68;;;;;;;2.97;100.00;102530.47;2106782;28;20488;-63
2021/10/24 00:42:11;;;;;;;14.47;8.23;;;;;;;2.96;100.00;102531.31;2106872;28;20055;-63
2021/10/24 00:43:11;;;;;;;10.60;7.77;;;;;;;2.98;100.00;102532.22;2106196;28;20024;-63
2021/10/24 00:44:26;;;;;;;19.47;10.40;;;;;;;3.00;100.00;102520.19;2106240;28;20043;-63
2021/10/24 00:45:26;;;;;;;13.57;9.30;;;;;;;3.01;100.00;102527.09;2106036;28;20059;-63
2021/10/24 00:46:26;;;;;;;15.43;9.43;;;;;;;3.00;100.00;102525.34;2106297;28;20031;-63
2021/10/24 00:47:30;;;;;;;13.40;7.97;;;;;;;2.98;100.00;102526.19;2106779;28;20081;-63
2021/10/24 00:48:30;;;;;;;14.38;8.85;;;;;;;2.98;100.00;102527.06;2106810;28;20024;-63
2021/10/24 00:49:31;;;;;;;15.80;8.57;;;;;;;2.96;100.00;102523.56;2106770;28;20015;-63
2021/10/24 00:50:33;;;;;;;14.35;8.73;;;;;;;2.95;100.00;102519.25;2106847;28;20431;-63
2021/10/24 00:51:33;;;;;;;17.67;9.55;;;;;;;2.97;100.00;102520.13;2106634;28;20092;-63
2021/10/24 00:52:34;;;;;;;18.90;9.33;;;;;;;2.97;100.00;102522.72;2106754;28;20036;-63
2021/10/24 00:53:34;;;;;;;13.60;8.87;;;;;;;2.94;100.00;102525.25;2106892;28;20028;-64
2021/10/24 00:54:35;;;;;;;15.90;9.10;;;;;;;2.92;100.00;102534.69;2106772;28;20423;-63
2021/10/24 00:55:36;;;;;;;16.70;8.70;;;;;;;2.91;100.00;102525.22;2106006;28;20071;-63
2021/10/24 00:56:42;;;;;;;12.93;8.27;;;;;;;2.91;100.00;102520.91;2106207;28;20019;-63
2021/10/24 00:57:43;;;;;;;22.70;9.88;;;;;;;2.92;100.00;102520.09;2106009;28;20024;-63
2021/10/24 00:58:43;;;;;;;11.77;8.67;;;;;;;2.90;100.00;102523.47;2106187;28;20034;-62
2021/10/24 00:59:44;;;;;;;17.47;9.33;;;;;;;2.91;100.00;102520.06;2106764;28;20491;-62
2021/10/24 01:00:45;;;;;;;14.10;8.13;;;;;;;2.88;100.00;102514.84;2106756;28;20032;-64
2021/10/24 01:01:45;;;;;;;13.95;8.52;;;;;;;2.89;100.00;102516.56;2106773;28;20063;-63
2021/10/24 01:02:46;;;;;;;12.10;8.23;;;;;;;2.87;100.00;102516.53;2106114;28;20048;-63
2021/10/24 01:03:46;;;;;;;17.95;9.45;;;;;;;2.85;100.00;102512.19;2106077;28;20016;-62
2021/10/24 01:04:46;;;;;;;15.70;9.17;;;;;;;2.86;100.00;102513.94;2106630;28;20483;-62
2021/10/24 01:05:47;;;;;;;17.23;9.07;;;;;;;2.88;100.00;102520.00;2106727;28;20016;-62
2021/10/24 01:06:51;;;;;;;17.88;9.35;;;;;;;2.90;100.00;102513.13;2106705;28;20520;-63
2021/10/24 01:07:51;;;;;;;14.32;8.43;;;;;;;2.85;100.00;102512.19;2106632;28;20412;-63
2021/10/24 01:08:51;;;;;;;23.43;8.80;;;;;;;2.82;100.00;102513.91;2106775;28;20024;-63
2021/10/24 01:09:52;;;;;;;13.23;9.00;;;;;;;2.86;100.00;102517.38;2106769;28;20466;-63
2021/10/24 01:10:52;;;;;;;16.70;9.30;;;;;;;2.87;100.00;102507.97;2106633;28;20477;-62
2021/10/24 01:11:53;;;;;;;17.43;8.83;;;;;;;2.86;100.00;102514.81;2105998;28;20509;-62
2021/10/24 01:12:53;;;;;;;12.67;8.83;;;;;;;2.89;100.00;102512.28;2106099;28;20354;-63
2021/10/24 01:13:54;;;;;;;16.83;9.03;;;;;;;2.90;100.00;102507.97;2106648;28;20063;-64
2021/10/24 01:14:54;;;;;;;12.55;9.50;;;;;;;2.89;100.00;102511.41;2106651;28;20508;-64
2021/10/24 01:16:16;;;;;;;22.87;8.43;;;;;;;2.87;100.00;102507.97;2106678;28;20023;-63
2021/10/24 01:17:16;;;;;;;17.02;8.73;;;;;;;2.83;100.00;102502.75;2106697;28;20036;-63
2021/10/24 01:18:16;;;;;;;13.47;8.63;;;;;;;2.85;100.00;102504.47;2106606;28;20039;-63
2021/10/24 01:19:19;;;;;;;15.13;8.30;;;;;;;2.84;100.00;102508.75;2106686;28;20024;-63
2021/10/24 01:20:24;;;;;;;15.77;8.82;;;;;;;2.81;100.00;102503.56;2106628;28;20036;-62
2021/10/24 01:21:24;;;;;;;15.80;9.82;;;;;;;2.85;100.00;102504.47;2105927;28;20016;-63
2021/10/24 01:22:26;;;;;;;13.93;9.43;;;;;;;2.85;100.00;102502.78;2107622;28;20441;-63
2021/10/24 01:23:26;;;;;;;;;;;;;;;2.81;100.00;102499.25;2108028;28;20075;-63
2021/10/24 01:24:26;;;;;;;17.93;9.30;;;;;;;2.80;100.00;102510.41;2107841;28;20338;-62
2021/10/24 01:25:27;;;;;;;20.67;9.60;;;;;;;2.79;100.00;102500.94;2108281;28;20284;-63
2021/10/24 01:26:28;;;;;;;15.50;9.07;;;;;;;2.78;100.00;102501.81;2108294;28;20043;-62
2021/10/24 01:27:29;;;;;;;17.52;9.27;;;;;;;2.74;100.00;102497.41;2107670;28;20024;-63
2021/10/24 01:28:29;;;;;;;14.05;9.35;;;;;;;2.71;100.00;102497.38;2107579;28;20506;-63
2021/10/24 01:29:29;;;;;;;15.20;9.43;;;;;;;2.67;100.00;102496.44;2107686;28;20031;-63
2021/10/24 01:30:30;;;;;;;16.77;9.87;;;;;;;2.68;100.00;102502.47;2107561;28;20109;-63
2021/10/24 01:31:30;;;;;;;16.73;9.47;;;;;;;2.68;100.00;102497.31;2099103;28;20565;-63
2021/10/24 01:32:31;;;;;;;15.13;9.33;;;;;;;2.69;100.00;102494.78;2107568;28;20032;-63
2021/10/24 01:33:31;;;;;;;19.63;10.37;;;;;;;2.69;100.00;102499.06;2108252;28;20062;-63
2021/10/24 01:34:42;;;;;;;13.67;8.93;;;;;;;2.68;100.00;102494.75;2108184;28;20024;-63
2021/10/24 01:35:53;;;;;;;15.77;9.05;;;;;;;2.70;100.00;102491.34;2108204;28;20031;-63
2021/10/24 01:36:53;;;;;;;13.98;8.45;;;;;;;2.72;100.00;102493.94;2107532;28;20443;-63
2021/10/24 01:37:55;;;;;;;16.30;8.03;;;;;;;2.70;100.00;102490.47;2107636;28;20055;-63
2021/10/24 01:38:56;;;;;;;15.50;8.68;;;;;;;2.69;100.00;102493.91;2108219;28;20028;-63
2021/10/24 01:39:57;;;;;;;14.15;8.93;;;;;;;2.66;100.00;102486.97;2108149;28;20020;-63
2021/10/24 01:40:58;;;;;;;14.77;8.85;;;;;;;2.63;100.00;102491.22;2107452;28;20061;-62
2021/10/24 01:41:58;;;;;;;16.48;8.52;;;;;;;2.66;100.00;102484.41;2107640;28;20102;-63
2021/10/24 01:42:58;;;;;;;14.37;8.17;;;;;;;2.68;100.00;102481.84;2108189;28;20027;-63
2021/10/24 01:44:00;;;;;;;13.17;7.80;;;;;;;2.65;100.00;102487.84;2108170;28;20468;-62
2021/10/24 01:45:08;;;;;;;14.85;9.13;;;;;;;2.69;100.00;102488.75;2108132;28;20034;-62
2021/10/24 01:46:08;;;;;;;15.00;8.85;;;;;;;2.67;100.00;102480.13;2107443;28;20103;-62
2021/10/24 01:47:09;;;;;;;14.33;9.07;;;;;;;2.66;100.00;102480.94;2107621;28;20373;-63
2021/10/24 01:48:09;;;;;;;14.43;8.30;;;;;;;2.64;100.00;102475.75;2108122;28;20042;-63
2021/10/24 01:49:09;;;;;;;16.33;9.40;;;;;;;2.63;100.00;102474.03;2108167;28;20028;-63
2021/10/24 01:50:10;;;;;;;16.27;9.87;;;;;;;2.64;100.00;102480.06;2108116;28;20082;-62
2021/10/24 01:51:11;;;;;;;17.43;9.57;;;;;;;2.65;100.00;102479.22;2107336;28;20032;-63
2021/10/24 01:52:11;;;;;;;13.88;8.43;;;;;;;2.67;100.00;102477.53;2107484;28;20294;-62
2021/10/24 01:53:16;;;;;;;16.37;8.93;;;;;;;2.65;100.00;102474.94;2108024;28;20503;-63
2021/10/24 01:54:16;;;;;;;16.55;9.38;;;;;;;2.65;100.00;102471.47;2108043;28;20016;-63
2021/10/24 01:55:16;;;;;;;15.23;7.97;;;;;;;2.62;100.00;102471.41;2108092;28;20058;-63
2021/10/24 01:56:17;;;;;;;12.48;8.55;;;;;;;2.59;100.00;102464.50;2108061;28;20466;-62
2021/10/24 01:57:17;;;;;;;13.85;9.18;;;;;;;2.57;100.00;102464.47;2108177;28;20036;-62
2021/10/24 01:58:18;;;;;;;15.43;8.77;;;;;;;2.61;100.00;102464.53;2108094;28;20046;-62
2021/10/24 01:59:19;;;;;;;13.77;8.80;;;;;;;2.63;100.00;102462.88;2108096;28;20050;-62
2021/10/24 02:00:20;;;;;;;15.37;9.73;;;;;;;2.61;100.00;102456.81;2108073;28;20035;-63
2021/10/24 02:01:21;;;;;;;14.57;7.97;;;;;;;2.60;100.00;102462.81;2108149;28;20016;-63
2021/10/24 02:02:21;;;;;;;15.67;8.40;;;;;;;2.55;100.00;102461.03;2108031;28;20398;-63
2021/10/24 02:03:21;;;;;;;16.33;9.13;;;;;;;2.59;100.00;102463.66;2107990;28;20032;-63
2021/10/24 02:04:22;;;;;;;20.20;8.50;;;;;;;2.64;100.00;102456.88;2107974;28;20028;-63
2021/10/24 02:05:22;;;;;;;14.10;9.23;;;;;;;2.63;100.00;102457.72;2107919;28;20028;-62
2021/10/24 02:06:22;;;;;;;15.80;8.83;;;;;;;2.63;100.00;102455.13;2108016;28;20096;-63
2021/10/24 02:07:22;;;;;;;15.17;9.50;;;;;;;2.63;100.00;102453.41;2108042;28;20544;-64
2021/10/24 02:08:23;;;;;;;16.13;8.57;;;;;;;2.71;100.00;102461.28;2107938;28;20059;-64
2021/10/24 02:09:23;;;;;;;12.87;8.93;;;;;;;2.68;100.00;102456.06;2107965;28;20109;-63
2021/10/24 02:10:23;;;;;;;15.60;8.87;;;;;;;2.68;100.00;102456.06;2107912;28;20024;-63
2021/10/24 02:11:23;;;;;;;18.80;8.97;;;;;;;2.69;100.00;102457.81;2107851;28;20023;-62
2021/10/24 02:12:24;;;;;;;19.07;9.87;;;;;;;2.70;100.00;102459.53;2107919;28;20103;-63
2021/10/24 02:13:24;;;;;;;20.13;8.30;;;;;;;2.71;100.00;102456.13;2107909;28;20024;-63
2021/10/24 02:14:25;;;;;;;12.60;8.10;;;;;;;2.72;100.00;102451.81;2107924;28;20036;-62
2021/10/24 02:15:25;;;;;;;17.03;8.90;;;;;;;2.68;100.00;102453.50;2107960;28;20016;-63
2021/10/24 02:16:25;;;;;;;14.03;9.83;;;;;;;2.68;100.00;102450.91;2107862;28;20065;-63
2021/10/24 02:17:25;;;;;;;16.23;9.07;;;;;;;2.64;100.00;102443.97;2107683;28;20111;-63
2021/10/24 02:18:26;;;;;;;15.37;8.77;;;;;;;2.66;100.00;102455.16;2107153;28;20398;-63
2021/10/24 02:19:26;;;;;;;16.13;9.87;;;;;;;2.70;100.00;102449.22;2107152;28;20070;-63
2021/10/24 02:20:29;;;;;;;11.03;8.20;;;;;;;2.66;100.00;102442.28;2107879;28;20023;-63
2021/10/24 02:21:29;;;;;;;17.55;8.95;;;;;;;2.63;100.00;102450.81;2107801;28;20019;-63
2021/10/24 02:22:30;;;;;;;12.43;8.30;;;;;;;2.63;100.00;102447.41;2107883;28;20015;-63
2021/10/24 02:23:30;;;;;;;12.68;9.48;;;;;;;2.63;100.00;102444.81;2107855;28;20076;-63
2021/10/24 02:24:30;;;;;;;15.90;8.87;;;;;;;2.62;100.00;102448.22;2107889;28;20043;-62
2021/10/24 02:25:32;;;;;;;15.20;8.33;;;;;;;2.64;100.00;102436.25;2107926;28;20024;-62
2021/10/24 02:26:32;;;;;;;14.02;9.50;;;;;;;2.64;100.00;102442.25;2107945;28;20024;-62
2021/10/24 02:27:33;;;;;;;18.07;8.10;;;;;;;2.61;100.00;102437.06;2107911;28;20026;-63
2021/10/24 02:28:33;;;;;;;15.00;9.60;;;;;;;2.61;100.00;102438.75;2108038;28;20023;-63
2021/10/24 02:29:34;;;;;;;20.17;9.40;;;;;;;2.63;100.00;102437.94;2108000;28;20023;-63
2021/10/24 02:30:35;;;;;;;13.40;8.53;;;;;;;2.67;100.00;102438.88;2108033;28;20020;-63
2021/10/24 02:31:35;;;;;;;16.75;9.80;;;;;;;2.65;100.00;102425.97;2107857;28;20024;-63
2021/10/24 02:32:36;;;;;;;16.37;9.20;;;;;;;2.63;100.00;102426.78;2107983;28;20423;-63
2021/10/24 02:33:37;;;;;;;15.13;8.80;;;;;;;2.60;100.00;102431.88;2107129;28;20051;-63
2021/10/24 02:34:38;;;;;;;15.30;9.17;;;;;;;2.57;100.00;102433.53;2107405;28;20272;-63
2021/10/24 02:35:39;;;;;;;12.77;8.68;;;;;;;2.59;100.00;102427.56;2107470;28;20028;-63
2021/10/24 02:36:40;;;;;;;;;;;;;;;2.57;100.00;102433.53;2108074;28;20516;-63
2021/10/24 02:37:42;;;;;;;11.40;7.28;;;;;;;2.52;100.00;102434.31;2107604;28;19919;-62
2021/10/24 02:38:43;;;;;;;15.20;9.07;;;;;;;2.53;100.00;102429.19;2107749;28;20023;-63
2021/10/24 02:39:43;;;;;;;13.30;8.63;;;;;;;2.53;100.00;102430.91;2106987;28;20016;-63
2021/10/24 02:40:43;;;;;;;15.93;8.73;;;;;;;2.51;100.00;102433.47;2107226;28;20023;-63
2021/10/24 02:41:44;;;;;;;12.27;8.57;;;;;;;2.51;100.00;102428.31;2107634;28;20289;-63
2021/10/24 02:42:44;;;;;;;13.73;8.37;;;;;;;2.48;100.00;102425.66;2107049;28;20058;-63
2021/10/24 02:43:45;;;;;;;14.40;8.87;;;;;;;2.47;100.00;102423.94;2107187;28;20080;-63
2021/10/24 02:44:45;;;;;;;14.57;8.77;;;;;;;2.44;100.00;102424.72;2107716;28;20487;-63
2021/10/24 02:45:46;;;;;;;12.43;8.40;;;;;;;2.41;100.00;102416.97;2107662;28;20012;-63
2021/10/24 02:46:46;;;;;;;13.47;7.73;;;;;;;2.45;100.00;102420.47;2107665;28;20550;-62
2021/10/24 02:47:46;;;;;;;15.20;9.07;;;;;;;2.49;100.00;102418.81;2107678;28;20020;-63
2021/10/24 02:48:46;;;;;;;14.17;8.43;;;;;;;2.48;100.00;102412.78;2107002;28;20038;-63
2021/10/24 02:49:48;;;;;;;14.93;8.90;;;;;;;2.48;100.00;102415.38;2106955;28;20107;-63
2021/10/24 02:50:48;;;;;;;;;;;;;;;2.46;100.00;102424.75;2107973;28;20038;-62
2021/10/24 02:51:49;;;;;;;12.00;7.63;;;;;;;2.42;100.00;102412.66;2107519;28;20377;-63
2021/10/24 02:52:49;;;;;;;14.40;7.53;;;;;;;2.42;100.00;102422.97;2107670;28;20022;-63
2021/10/24 02:53:49;;;;;;;15.30;8.60;;;;;;;2.46;100.00;102419.59;2106832;28;20031;-62
2021/10/24 02:54:50;;;;;;;12.73;8.20;;;;;;;2.44;100.00;102422.16;2106958;28;20024;-63
2021/10/24 02:55:50;;;;;;;14.57;8.50;;;;;;;2.45;100.00;102423.03;2107012;28;20031;-63
2021/10/24 02:56:50;;;;;;;16.37;9.20;;;;;;;2.42;100.00;102422.97;2107627;28;20103;-63
2021/10/24 02:57:51;;;;;;;17.37;8.67;;;;;;;2.40;100.00;102416.94;2107598;28;20496;-63
2021/10/24 02:58:51;;;;;;;12.37;8.37;;;;;;;2.35;100.00;102421.13;2107584;28;20028;-62
2021/10/24 02:59:51;;;;;;;13.30;8.70;;;;;;;2.34;100.00;102415.13;2107548;28;20024;-63
2021/10/24 03:00:51;;;;;;;12.30;8.03;;;;;;;2.33;100.00;102413.41;2107622;28;20028;-63
2021/10/24 03:01:51;;;;;;;15.57;8.90;;;;;;;2.33;100.00;102412.53;2107556;28;20111;-63
2021/10/24 03:02:52;;;;;;;16.50;8.80;;;;;;;2.31;100.00;102415.94;2106905;28;20059;-63
2021/10/24 03:03:52;;;;;;;11.43;7.80;;;;;;;2.29;100.00;102409.88;2107021;28;20028;-62
2021/10/24 03:04:52;;;;;;;20.27;9.10;;;;;;;2.33;100.00;102405.66;2107522;28;20020;-62
2021/10/24 03:05:53;;;;;;;15.97;9.07;;;;;;;2.37;100.00;102409.16;2107472;28;20484;-64
2021/10/24 03:06:54;;;;;;;19.80;9.00;;;;;;;2.35;100.00;102405.66;2107554;28;20047;-63
2021/10/24 03:07:54;;;;;;;13.50;8.85;;;;;;;2.29;100.00;102407.31;2106895;28;20019;-63
2021/10/24 03:08:54;;;;;;;15.40;8.10;;;;;;;2.30;100.00;102414.19;2106936;28;20028;-63
2021/10/24 03:09:54;;;;;;;17.13;9.17;;;;;;;2.29;100.00;102409.03;2107441;28;20106;-63
2021/10/24 03:10:55;;;;;;;13.03;7.40;;;;;;;2.30;100.00;102401.31;2107394;28;20051;-62
2021/10/24 03:11:56;;;;;;;12.88;7.60;;;;;;;2.27;100.00;102408.13;2107446;28;20043;-62
2021/10/24 03:12:56;;;;;;;16.50;8.33;;;;;;;2.28;100.00;102410.75;2107497;28;20035;-63
2021/10/24 03:13:56;;;;;;;16.80;8.77;;;;;;;2.30;100.00;102409.03;2107498;28;20028;-62
2021/10/24 03:14:57;;;;;;;13.85;8.68;;;;;;;2.27;100.00;102397.81;2107463;28;20059;-62
2021/10/24 03:15:57;;;;;;;12.97;7.73;;;;;;;2.27;100.00;102398.69;2107378;28;20448;-62
2021/10/24 03:16:57;;;;;;;14.63;7.73;;;;;;;2.26;100.00;102396.94;2107405;28;20086;-62
2021/10/24 03:17:58;;;;;;;15.60;9.17;;;;;;;2.28;100.00;102399.56;2107289;28;20028;-63
2021/10/24 03:18:58;;;;;;;13.23;8.43;;;;;;;2.30;100.00;102401.31;2107475;28;20076;-62
2021/10/24 03:19:58;;;;;;;14.97;8.90;;;;;;;2.28;100.00;102396.97;2107437;28;20020;-63
2021/10/24 03:20:58;;;;;;;14.33;7.83;;;;;;;2.27;100.00;102393.56;2107402;28;20027;-63
2021/10/24 03:22:00;;;;;;;12.10;8.23;;;;;;;2.25;100.00;102397.78;2107419;28;20024;-65
2021/10/24 03:23:01;;;;;;;11.27;7.35;;;;;;;2.26;100.00;102402.09;2106687;28;20388;-63
2021/10/24 03:24:02;;;;;;;14.23;8.73;;;;;;;2.24;100.00;102395.19;2106856;28;20046;-63
2021/10/24 03:25:02;;;;;;;18.30;8.73;;;;;;;2.22;100.00;102392.59;2106703;28;20463;-62
2021/10/24 03:26:03;;;;;;;12.20;7.43;;;;;;;2.25;100.00;102396.91;2098272;28;20127;-63
2021/10/24 03:27:03;;;;;;;13.20;8.47;;;;;;;2.26;100.00;102386.63;2106766;28;20024;-63
2021/10/24 03:28:03;;;;;;;13.17;8.23;;;;;;;2.24;100.00;102393.50;2107363;28;20016;-63
2021/10/24 03:29:04;;;;;;;15.47;9.03;;;;;;;2.23;100.00;102396.91;2107385;28;20538;-62
2021/10/24 03:30:04;;;;;;;12.90;8.30;;;;;;;2.22;100.00;102400.31;2107341;28;20098;-63
2021/10/24 03:31:05;;;;;;;14.85;8.73;;;;;;;2.19;100.00;102392.56;2107196;28;20020;-63
2021/10/24 03:32:06;;;;;;;12.17;8.47;;;;;;;2.17;100.00;102392.53;2107267;28;20020;-63
2021/10/24 03:33:06;;;;;;;13.82;8.07;;;;;;;2.16;100.00;102389.91;2106625;28;20024;-63
2021/10/24 03:34:07;;;;;;;13.13;8.00;;;;;;;2.15;100.00;102388.16;2106684;28;20063;-63
2021/10/24 03:35:07;;;;;;;13.33;7.53;;;;;;;2.15;100.00;102390.72;2107288;28;20032;-63
2021/10/24 03:36:07;;;;;;;14.00;8.83;;;;;;;2.18;100.00;102393.38;2107165;28;20067;-63
2021/10/24 03:37:07;;;;;;;12.20;7.90;;;;;;;2.20;100.00;102391.69;2107308;28;20055;-62
2021/10/24 03:38:08;;;;;;;12.53;7.53;;;;;;;2.20;100.00;102394.28;2107284;28;20103;-63
2021/10/24 03:39:08;;;;;;;12.77;8.33;;;;;;;2.18;100.00;102388.22;2107359;28;20027;-63
2021/10/24 03:40:09;;;;;;;11.23;7.00;;;;;;;2.18;100.00;102388.22;2107262;28;20401;-63
2021/10/24 03:41:12;;;;;;;10.43;6.85;;;;;;;2.24;100.00;102393.50;2106648;28;20036;-63
2021/10/24 03:42:12;;;;;;;13.23;8.43;;;;;;;2.21;100.00;102390.84;2106636;28;20044;-63
2021/10/24 03:43:13;;;;;;;11.97;8.80;;;;;;;2.17;100.00;102382.22;2107138;28;20303;-63
2021/10/24 03:44:13;;;;;;;13.27;7.67;;;;;;;2.18;100.00;102388.22;2107253;28;20027;-63
2021/10/24 03:45:13;;;;;;;15.60;8.47;;;;;;;2.18;100.00;102389.09;2107194;28;20080;-62
2021/10/24 03:46:14;;;;;;;13.37;7.57;;;;;;;2.18;100.00;102388.22;2107190;28;20028;-63
2021/10/24 03:47:14;;;;;;;15.63;9.00;;;;;;;2.18;100.00;102388.22;2107234;28;20036;-63
2021/10/24 03:48:14;;;;;;;13.57;8.50;;;;;;;2.15;100.00;102390.72;2107183;28;20040;-62
2021/10/24 03:49:14;;;;;;;13.23;8.43;;;;;;;2.16;100.00;102389.91;2107173;28;20024;-63
2021/10/24 03:50:15;;;;;;;12.53;7.57;;;;;;;2.15;100.00;102390.72;2107165;28;20028;-64
2021/10/24 03:51:15;;;;;;;13.07;7.30;;;;;;;2.13;100.00;102397.59;2107041;28;20020;-64
2021/10/24 03:52:15;;;;;;;12.93;7.33;;;;;;;2.10;100.00;102390.66;2106595;28;20038;-63
2021/10/24 03:53:16;;;;;;;14.57;8.37;;;;;;;2.14;100.00;102391.59;2106596;28;20056;-62
2021/10/24 03:54:16;;;;;;;12.98;8.70;;;;;;;2.17;100.00;102394.22;2107160;28;20030;-63
2021/10/24 03:55:16;;;;;;;14.43;8.83;;;;;;;2.14;100.00;102394.16;2107092;28;20024;-63
2021/10/24 03:56:17;;;;;;;12.33;7.90;;;;;;;2.12;100.00;102388.13;2107188;28;20077;-63
2021/10/24 03:57:17;;;;;;;15.37;9.30;;;;;;;2.10;100.00;102390.66;2107058;28;20027;-63
2021/10/24 03:58:17;;;;;;;16.17;8.53;;;;;;;2.12;100.00;102394.13;2107089;28;20035;-63
2021/10/24 03:59:17;;;;;;;17.97;8.90;;;;;;;2.13;100.00;102389.84;2107159;28;20056;-63
2021/10/24 04:00:18;;;;;;;12.60;8.07;;;;;;;2.12;100.00;102394.13;2107152;28;20111;-63
2021/10/24 04:01:18;;;;;;;13.23;8.60;;;;;;;2.10;100.00;102389.78;2106557;28;20401;-63
2021/10/24 04:02:18;;;;;;;12.93;7.50;;;;;;;2.10;100.00;102389.78;2106495;28;20027;-62
2021/10/24 04:03:19;;;;;;;11.70;6.93;;;;;;;2.03;100.00;102384.53;2107087;28;20028;-64
2021/10/24 04:04:19;;;;;;;17.53;8.50;;;;;;;2.04;100.00;102394.00;2106974;28;20036;-63
2021/10/24 04:05:20;;;;;;;12.70;7.97;;;;;;;2.09;100.00;102393.22;2107132;28;20051;-63
2021/10/24 04:06:20;;;;;;;;;;;;;;;2.09;100.00;102388.06;2107500;28;20028;-63
2021/10/24 04:07:21;;;;;;;15.30;8.40;;;;;;;2.09;100.00;102390.63;2106962;28;20369;-63
2021/10/24 04:08:21;;;;;;;13.00;8.30;;;;;;;2.10;100.00;102394.94;2107041;28;20053;-63
2021/10/24 04:09:21;;;;;;;11.43;7.37;;;;;;;2.10;100.00;102388.09;2107177;28;20468;-62
2021/10/24 04:10:23;;;;;;;11.97;8.40;;;;;;;2.11;100.00;102391.53;2107059;28;20504;-63
2021/10/24 04:11:23;;;;;;;13.95;8.82;;;;;;;2.12;100.00;102398.44;2106944;28;20115;-63
2021/10/24 04:12:23;;;;;;;14.33;8.43;;;;;;;2.12;100.00;102395.84;2107027;28;20077;-63
2021/10/24 04:13:24;;;;;;;10.23;6.73;;;;;;;2.10;100.00;102390.66;2106982;28;20028;-63
2021/10/24 04:14:25;;;;;;;14.23;8.07;;;;;;;2.09;100.00;102388.06;2106394;28;20086;-63
2021/10/24 04:15:25;;;;;;;14.75;7.68;;;;;;;2.10;100.00;102389.78;2106424;28;20038;-63
2021/10/24 04:16:26;;;;;;;12.70;8.37;;;;;;;2.07;100.00;102385.47;2107055;28;20028;-63
2021/10/24 04:17:27;;;;;;;12.23;8.63;;;;;;;2.04;100.00;102390.53;2107009;28;20031;-63
2021/10/24 04:18:27;;;;;;;17.60;8.35;;;;;;;2.02;100.00;102387.94;2106923;28;20058;-63
2021/10/24 04:19:27;;;;;;;11.23;8.17;;;;;;;2.03;100.00;102387.13;2106889;28;20440;-63
2021/10/24 04:20:27;;;;;;;12.67;7.20;;;;;;;2.03;100.00;102391.41;2106372;28;20036;-63
2021/10/24 04:21:28;;;;;;;13.57;8.37;;;;;;;2.00;100.00;102384.50;2106392;28;20035;-62
2021/10/24 04:22:29;;;;;;;18.27;8.47;;;;;;;2.00;100.00;102389.63;2106983;28;20032;-63
2021/10/24 04:23:29;;;;;;;12.73;7.22;;;;;;;1.99;100.00;102385.31;2106978;28;20032;-63
2021/10/24 04:24:29;;;;;;;13.13;9.10;;;;;;;1.98;100.00;102386.16;2106921;28;20023;-63
2021/10/24 04:25:30;;;;;;;13.70;8.20;;;;;;;1.98;100.00;102385.31;2106909;28;20024;-63
2021/10/24 04:26:30;;;;;;;12.70;7.67;;;;;;;1.99;100.00;102387.88;2106885;28;20448;-63
2021/10/24 04:27:31;;;;;;;14.67;9.57;;;;;;;1.99;100.00;102382.72;2106893;28;20024;-63
2021/10/24 04:28:32;;;;;;;13.20;7.80;;;;;;;1.96;100.00;102382.69;2106977;28;20193;-63
2021/10/24 04:29:32;;;;;;;11.90;7.67;;;;;;;1.95;100.00;102388.66;2106943;28;20460;-63
2021/10/24 04:30:32;;;;;;;18.53;8.63;;;;;;;1.95;100.00;102386.09;2106889;28;20078;-63
2021/10/24 04:31:33;;;;;;;13.60;8.20;;;;;;;1.96;100.00;102385.28;2106781;28;20024;-62
2021/10/24 04:32:34;;;;;;;11.90;7.67;;;;;;;1.96;100.00;102387.84;2106900;28;20412;-63
2021/10/24 04:33:34;;;;;;;11.55;7.10;;;;;;;1.93;100.00;102385.22;2106931;28;20469;-62
2021/10/24 04:34:34;;;;;;;13.43;8.53;;;;;;;1.90;100.00;102377.41;2106933;28;20129;-63
2021/10/24 04:35:35;;;;;;;12.27;8.30;;;;;;;1.88;100.00;102384.25;2106872;28;20069;-63
2021/10/24 04:36:35;;;;;;;16.53;8.13;;;;;;;1.86;100.00;102375.63;2106844;28;20051;-63
2021/10/24 04:37:35;;;;;;;14.33;7.43;;;;;;;1.88;100.00;102379.13;2106179;28;20032;-63
2021/10/24 04:38:36;;;;;;;17.87;9.90;;;;;;;1.88;100.00;102381.69;2106359;28;20026;-63
2021/10/24 04:39:36;;;;;;;11.83;7.40;;;;;;;1.84;100.00;102378.16;2106872;28;20429;-63
2021/10/24 04:40:37;;;;;;;13.63;8.30;;;;;;;1.82;100.00;102372.16;2106843;28;20020;-63